Time;durP1;ratioP1;P1;durP2;ratioP2;P2;SDS_P1;SDS_P2;PMS_P1;PMS_P2;Temp;Humidity;BMP_temperature;BMP_pressure;BME280_temperature;BME280_humidity;BME280_pressure;Samples;Min_cycle;Max_cycle;Signal;HPM_P1;HPM_P2
2023/07/24 00:01:11;;;;;;;0.75;0.60;;;16.60;95.60;;;;;;5067822;28;20101;-91
2023/07/24 00:03:38;;;;;;;1.30;0.80;;;16.60;91.90;;;;;;5052138;28;20041;-90
2023/07/24 00:06:05;;;;;;;1.25;0.63;;;16.60;75.80;;;;;;5048458;28;20132;-91
2023/07/24 00:08:32;;;;;;;1.50;0.90;;;16.60;91.60;;;;;;5054202;28;20051;-91
2023/07/24 00:10:59;;;;;;;1.38;0.75;;;16.70;83.20;;;;;;5079882;28;20056;-91
2023/07/24 00:13:26;;;;;;;1.00;0.70;;;16.70;75.70;;;;;;5070464;28;20401;-91
2023/07/24 00:15:52;;;;;;;0.80;0.75;;;16.70;77.60;;;;;;5074653;28;20056;-89
2023/07/24 00:18:19;;;;;;;0.90;0.47;;;16.80;53.00;;;;;;5072933;28;20252;-90
2023/07/24 00:20:46;;;;;;;1.15;0.80;;;16.80;66.40;;;;;;5062795;28;20032;-91
2023/07/24 00:23:13;;;;;;;1.42;0.82;;;16.70;63.10;;;;;;5080561;28;20048;-91
2023/07/24 00:25:40;;;;;;;0.90;0.60;;;16.70;86.10;;;;;;5067135;28;20483;-91
2023/07/24 00:28:06;;;;;;;0.98;0.80;;;16.70;92.80;;;;;;5071352;28;20048;-91
2023/07/24 00:30:33;;;;;;;1.23;0.70;;;16.70;80.90;;;;;;5072480;28;20055;-92
2023/07/24 00:33:00;;;;;;;0.52;0.40;;;16.70;69.80;;;;;;5053344;28;20055;-91
2023/07/24 00:35:27;;;;;;;1.30;0.77;;;16.80;67.20;;;;;;5067084;28;20053;-90
2023/07/24 00:37:54;;;;;;;0.98;0.68;;;16.70;86.90;;;;;;5051885;28;20333;-91
2023/07/24 00:40:21;;;;;;;1.80;0.85;;;16.70;91.40;;;;;;5039731;28;20093;-92
2023/07/24 00:42:48;;;;;;;1.33;0.63;;;16.70;92.50;;;;;;5081338;28;20052;-91
2023/07/24 00:45:16;;;;;;;1.20;0.80;;;16.70;85.60;;;;;;5068414;28;20480;-92
2023/07/24 00:47:43;;;;;;;2.20;1.17;;;16.70;99.90;;;;;;5068886;28;20110;-90
2023/07/24 00:50:10;;;;;;;1.58;0.82;;;16.70;99.10;;;;;;5054405;28;20048;-91
2023/07/24 00:52:37;;;;;;;2.08;1.10;;;16.60;99.90;;;;;;5054212;28;20052;-91
2023/07/24 00:55:04;;;;;;;1.02;0.63;;;16.60;99.90;;;;;;5079539;28;20102;-92
2023/07/24 00:57:31;;;;;;;0.88;0.60;;;16.60;99.90;;;;;;5065704;28;20204;-90
2023/07/24 00:59:58;;;;;;;2.00;0.70;;;16.50;99.90;;;;;;5031284;28;20087;-91
2023/07/24 01:02:25;;;;;;;1.20;0.70;;;16.50;99.90;;;;;;5082837;28;20105;-93
2023/07/24 01:04:52;;;;;;;1.52;0.80;;;16.50;99.90;;;;;;5043612;28;20046;-91
2023/07/24 01:07:20;;;;;;;1.42;0.68;;;16.50;99.90;;;;;;5049445;28;20471;-91
2023/07/24 01:09:47;;;;;;;1.50;0.80;;;16.50;99.90;;;;;;5050047;28;20048;-90
2023/07/24 01:12:33;;;;;;;1.00;0.68;;;16.50;99.90;;;;;;5062466;28;20059;-90
2023/07/24 01:15:15;;;;;;;1.20;0.63;;;16.50;99.90;;;;;;5070206;28;20324;-90
2023/07/24 01:17:54;;;;;;;1.27;0.65;;;16.40;99.90;;;;;;5053102;28;20053;-90
2023/07/24 01:20:21;;;;;;;1.42;0.60;;;16.40;99.90;;;;;;5077533;28;20052;-90
2023/07/24 01:23:01;;;;;;;1.20;0.80;;;16.30;99.90;;;;;;5060182;28;20366;-91
2023/07/24 01:25:32;;;;;;;0.95;0.50;;;16.30;99.90;;;;;;5046077;28;20476;-92
2023/07/24 01:30:43;;;;;;;2.60;0.60;;;16.30;99.90;;;;;;5077768;28;20218;-92
2023/07/24 01:33:10;;;;;;;1.20;0.52;;;16.30;99.90;;;;;;5050047;28;20135;-90
2023/07/24 01:35:36;;;;;;;1.02;0.65;;;16.30;99.90;;;;;;5058976;28;20044;-89
2023/07/24 01:38:03;;;;;;;1.17;0.65;;;16.30;99.90;;;;;;5055393;28;20044;-91
2023/07/24 01:40:30;;;;;;;1.08;0.80;;;16.30;1.00;;;;;;5058769;28;20441;-91
2023/07/24 01:42:59;;;;;;;1.50;0.90;;;16.30;1.00;;;;;;5062738;28;20052;-90
2023/07/24 01:45:26;;;;;;;0.82;0.63;;;16.30;1.00;;;;;;5039962;28;20049;-90
2023/07/24 01:47:53;;;;;;;1.10;0.60;;;16.30;1.00;;;;;;5045195;28;20501;-91
2023/07/24 01:50:20;;;;;;;2.38;0.65;;;16.30;1.00;;;;;;5060138;28;20054;-91
2023/07/24 01:52:47;;;;;;;3.42;0.57;;;16.30;1.00;;;;;;5088152;28;20062;-91
2023/07/24 01:55:14;;;;;;;1.40;0.90;;;16.40;1.00;;;;;;5081902;28;20249;-90
2023/07/24 01:57:40;;;;;;;2.33;0.60;;;16.40;1.00;;;;;;5070071;28;20053;-90
2023/07/24 02:00:08;;;;;;;1.02;0.50;;;16.40;1.00;;;;;;5066830;28;20101;-91
2023/07/24 02:02:34;;;;;;;1.33;0.63;;;16.40;1.00;;;;;;5073637;28;20141;-90
2023/07/24 02:05:01;;;;;;;0.98;0.70;;;16.40;1.00;;;;;;5065252;28;20059;-90
2023/07/24 02:07:28;;;;;;;0.73;0.70;;;16.40;1.00;;;;;;5080372;28;20048;-92
2023/07/24 02:09:55;;;;;;;1.17;0.90;;;16.40;1.00;;;;;;5079574;28;20110;-90
2023/07/24 02:12:22;;;;;;;0.70;0.50;;;16.40;1.00;;;;;;5043700;28;20118;-91
2023/07/24 02:14:51;;;;;;;1.30;0.77;;;16.40;1.00;;;;;;5053863;28;20048;-90
2023/07/24 02:17:18;;;;;;;1.20;0.65;;;16.40;1.00;;;;;;5079980;28;20060;-92
2023/07/24 02:19:45;;;;;;;1.20;0.68;;;16.40;1.00;;;;;;5052635;28;20083;-91
2023/07/24 02:22:12;;;;;;;0.85;0.57;;;16.30;1.00;;;;;;5071543;28;20060;-90
2023/07/24 02:24:38;;;;;;;1.58;0.65;;;16.30;1.00;;;;;;5070534;28;20048;-91
2023/07/24 02:27:05;;;;;;;1.23;0.63;;;16.20;9.60;;;;;;5085990;28;20058;-90
2023/07/24 02:29:32;;;;;;;0.80;0.50;;;16.20;46.30;;;;;;5063475;28;20127;-89
2023/07/24 02:31:59;;;;;;;1.13;0.77;;;16.10;96.10;;;;;;5047206;28;20109;-90
2023/07/24 02:34:28;;;;;;;1.17;0.68;;;16.10;99.90;;;;;;5041882;28;20064;-89
2023/07/24 02:36:54;;;;;;;1.27;0.60;;;16.10;99.90;;;;;;5071092;28;20566;-90
2023/07/24 02:39:21;;;;;;;0.65;0.40;;;16.10;99.90;;;;;;5075075;28;20052;-92
2023/07/24 02:41:49;;;;;;;0.80;0.50;;;16.10;99.90;;;;;;5035705;28;20056;-89
2023/07/24 02:44:15;;;;;;;1.20;0.80;;;16.10;99.90;;;;;;5060337;28;20087;-90
2023/07/24 02:46:42;;;;;;;0.85;0.60;;;16.10;99.90;;;;;;5057548;28;20045;-88
2023/07/24 02:49:09;;;;;;;0.95;0.60;;;16.10;99.90;;;;;;5082089;28;20040;-90
2023/07/24 02:51:35;;;;;;;1.02;0.50;;;16.10;99.90;;;;;;5070072;28;20070;-89
2023/07/24 02:54:02;;;;;;;0.73;0.73;;;16.10;99.90;;;;;;5055153;28;20067;-89
2023/07/24 02:56:29;;;;;;;0.52;0.40;;;16.10;99.90;;;;;;5082939;28;20063;-88
2023/07/24 02:58:56;;;;;;;0.88;0.60;;;16.10;99.90;;;;;;5063731;28;20446;-89
2023/07/24 03:01:23;;;;;;;0.82;0.45;;;16.20;99.90;;;;;;5066840;28;20120;-89
2023/07/24 03:03:50;;;;;;;0.82;0.50;;;16.10;99.90;;;;;;5042001;28;20364;-90
2023/07/24 03:06:17;;;;;;;1.05;0.60;;;16.10;99.90;;;;;;5071968;28;20048;-89
2023/07/24 03:08:43;;;;;;;0.80;0.60;;;16.10;99.90;;;;;;5080121;28;20122;-89
2023/07/24 03:11:10;;;;;;;0.55;0.50;;;16.10;99.90;;;;;;5054928;28;20546;-90
2023/07/24 03:13:40;;;;;;;0.47;0.47;;;16.10;99.90;;;;;;5068638;28;20446;-89
2023/07/24 03:16:08;;;;;;;0.80;0.60;;;16.10;99.90;;;;;;5088203;28;20052;-90
2023/07/24 03:18:35;;;;;;;0.90;0.55;;;16.20;99.90;;;;;;5080177;28;20040;-90
2023/07/24 03:21:03;;;;;;;0.82;0.40;;;16.20;99.90;;;;;;5079754;28;20440;-89
2023/07/24 03:23:29;;;;;;;0.70;0.50;;;16.20;99.90;;;;;;5061345;28;20044;-89
2023/07/24 03:25:56;;;;;;;0.80;0.50;;;16.20;99.90;;;;;;5047578;28;20323;-90
2023/07/24 03:28:23;;;;;;;0.80;0.45;;;16.20;99.90;;;;;;5061838;28;20051;-89
2023/07/24 03:30:50;;;;;;;1.30;0.82;;;16.10;99.90;;;;;;5074530;28;20094;-90
2023/07/24 03:33:17;;;;;;;0.32;0.30;;;16.10;99.90;;;;;;5049873;28;20140;-90
2023/07/24 03:35:44;;;;;;;1.17;0.55;;;16.10;99.90;;;;;;5063633;28;20040;-90
2023/07/24 03:38:10;;;;;;;0.73;0.40;;;16.10;99.90;;;;;;5087114;28;20114;-91
2023/07/24 03:40:37;;;;;;;1.10;0.65;;;16.10;99.90;;;;;;5061428;28;20052;-92
2023/07/24 03:43:04;;;;;;;0.70;0.60;;;16.10;99.90;;;;;;5062565;28;20056;-90
2023/07/24 03:45:31;;;;;;;2.00;0.63;;;16.10;99.90;;;;;;5054359;28;20052;-91
2023/07/24 03:47:58;;;;;;;1.33;0.75;;;16.10;99.90;;;;;;5046983;28;20047;-89
2023/07/24 03:50:25;;;;;;;0.80;0.50;;;16.10;99.90;;;;;;5067559;28;20126;-89
2023/07/24 03:52:51;;;;;;;0.85;0.70;;;16.10;99.90;;;;;;5064302;28;20048;-91
2023/07/24 03:55:18;;;;;;;1.00;0.90;;;16.10;1.00;;;;;;5081868;28;20253;-90
2023/07/24 03:57:45;;;;;;;0.55;0.40;;;16.10;1.00;;;;;;5062878;28;20103;-90
2023/07/24 04:00:12;;;;;;;0.88;0.68;;;16.10;1.00;;;;;;5069374;28;20113;-90
2023/07/24 04:02:39;;;;;;;0.57;0.47;;;16.00;1.00;;;;;;5068254;28;20058;-89
2023/07/24 04:05:06;;;;;;;0.80;0.50;;;16.00;1.00;;;;;;5074062;28;20155;-90
2023/07/24 04:07:33;;;;;;;0.90;0.52;;;16.00;1.00;;;;;;5052360;28;20048;-91
2023/07/24 04:10:00;;;;;;;0.88;0.50;;;16.00;1.00;;;;;;5076778;28;20044;-89
2023/07/24 04:12:29;;;;;;;0.30;0.30;;;16.00;1.00;;;;;;5062080;28;20066;-92
2023/07/24 04:14:55;;;;;;;0.52;0.40;;;16.00;1.00;;;;;;5069486;28;20467;-90
2023/07/24 04:17:23;;;;;;;0.80;0.45;;;16.00;1.00;;;;;;5051364;28;20070;-91
2023/07/24 04:19:50;;;;;;;0.90;0.47;;;16.10;1.00;;;;;;5042860;28;20040;-88
2023/07/24 04:22:16;;;;;;;1.58;0.60;;;16.10;1.00;;;;;;5069070;28;20048;-90
2023/07/24 04:24:43;;;;;;;2.05;0.77;;;16.10;1.00;;;;;;5069769;28;20117;-90
2023/07/24 04:27:10;;;;;;;0.80;0.60;;;16.10;1.00;;;;;;5040984;28;20057;-89
2023/07/24 04:29:37;;;;;;;1.33;0.57;;;16.20;1.00;;;;;;5034424;28;20049;-89
2023/07/24 04:32:04;;;;;;;1.05;0.52;;;16.10;1.00;;;;;;5032882;28;20053;-89
2023/07/24 04:34:32;;;;;;;0.82;0.50;;;16.10;1.00;;;;;;5072896;28;20422;-89
2023/07/24 04:36:59;;;;;;;1.23;0.75;;;16.20;1.00;;;;;;5073029;28;20044;-90
2023/07/24 04:39:26;;;;;;;0.80;0.40;;;16.20;1.00;;;;;;5054197;28;20053;-89
2023/07/24 04:41:53;;;;;;;0.95;0.60;;;16.20;1.00;;;;;;5057991;28;20437;-90
2023/07/24 04:44:20;;;;;;;0.88;0.50;;;16.20;1.00;;;;;;5046818;28;20471;-89
2023/07/24 04:46:46;;;;;;;0.70;0.50;;;16.20;1.00;;;;;;5049451;28;20101;-91
2023/07/24 04:49:13;;;;;;;0.60;0.40;;;16.20;1.00;;;;;;5044244;28;20547;-89
2023/07/24 04:51:40;;;;;;;0.60;0.40;;;16.20;1.00;;;;;;5061999;28;20338;-89
2023/07/24 04:54:07;;;;;;;0.32;0.32;;;16.30;1.00;;;;;;5046329;28;20053;-90
2023/07/24 04:56:33;;;;;;;1.08;0.45;;;16.40;99.90;;;;;;5045782;28;20074;-90
2023/07/24 04:59:00;;;;;;;0.80;0.50;;;16.40;99.90;;;;;;5055284;28;20628;-81
2023/07/24 05:01:27;;;;;;;0.98;0.73;;;16.40;99.90;;;;;;5077484;28;20055;-85
2023/07/24 05:03:54;;;;;;;1.17;0.43;;;16.40;99.90;;;;;;5055660;28;20060;-89
2023/07/24 05:06:21;;;;;;;0.93;0.55;;;16.40;99.90;;;;;;5075646;28;20052;-90
2023/07/24 05:08:47;;;;;;;0.60;0.50;;;16.40;99.90;;;;;;5075957;28;20048;-92
2023/07/24 05:11:14;;;;;;;0.40;0.40;;;16.50;99.90;;;;;;5045254;28;20083;-91
2023/07/24 05:13:41;;;;;;;0.98;0.60;;;16.40;99.90;;;;;;5080148;28;20083;-90
2023/07/24 05:16:08;;;;;;;0.75;0.45;;;16.40;99.90;;;;;;5081682;28;20040;-90
2023/07/24 05:18:35;;;;;;;1.67;0.63;;;16.50;99.90;;;;;;5069335;28;20052;-89
2023/07/24 05:21:06;;;;;;;1.30;0.52;;;16.40;99.90;;;;;;5082538;28;20081;-89
2023/07/24 05:23:33;;;;;;;1.08;0.57;;;16.40;99.90;;;;;;5072589;28;20048;-91
2023/07/24 05:26:00;;;;;;;1.63;0.60;;;16.40;99.90;;;;;;5067454;28;20064;-92
2023/07/24 05:28:27;;;;;;;0.50;0.50;;;16.40;99.90;;;;;;5045389;28;20049;-89
2023/07/24 05:30:54;;;;;;;0.85;0.50;;;16.40;99.90;;;;;;5038602;28;20521;-90
2023/07/24 05:33:21;;;;;;;0.80;0.50;;;16.40;99.90;;;;;;5045753;28;20136;-88
2023/07/24 05:35:51;;;;;;;0.90;0.75;;;16.40;99.90;;;;;;5063424;28;20053;-90
2023/07/24 05:38:18;;;;;;;1.10;0.60;;;16.40;99.90;;;;;;5051044;28;20446;-87
2023/07/24 05:40:45;;;;;;;0.98;0.60;;;16.50;99.90;;;;;;5043065;28;20167;-91
2023/07/24 05:43:11;;;;;;;0.82;0.57;;;16.60;99.90;;;;;;5043573;28;20106;-89
2023/07/24 05:45:39;;;;;;;0.70;0.50;;;16.60;99.90;;;;;;5065479;28;20117;-88
2023/07/24 05:48:05;;;;;;;0.40;0.40;;;16.50;99.90;;;;;;5054548;28;20056;-92
2023/07/24 05:50:32;;;;;;;1.15;0.70;;;16.50;99.90;;;;;;5040401;28;20123;-91
2023/07/24 05:52:59;;;;;;;0.50;0.50;;;16.50;99.90;;;;;;5054995;28;20048;-90
2023/07/24 05:55:26;;;;;;;0.95;0.55;;;16.50;99.90;;;;;;5029636;28;20090;-88
2023/07/24 05:57:53;;;;;;;0.60;0.60;;;16.60;99.90;;;;;;5049180;28;20433;-89
2023/07/24 06:00:20;;;;;;;0.55;0.55;;;16.60;99.90;;;;;;5026193;28;20078;-90
2023/07/24 06:02:47;;;;;;;0.70;0.52;;;16.70;99.90;;;;;;5059810;28;20111;-89
2023/07/24 06:05:14;;;;;;;1.20;0.60;;;16.80;99.90;;;;;;5050707;28;20040;-89
2023/07/24 06:07:40;;;;;;;0.60;0.50;;;17.00;99.90;;;;;;5060414;28;20066;-88
2023/07/24 06:10:08;;;;;;;1.55;0.70;;;17.20;73.60;;;;;;5048642;28;20057;-89
2023/07/24 06:12:34;;;;;;;0.77;0.60;;;17.40;7.20;;;;;;5057932;28;20052;-88
2023/07/24 06:15:01;;;;;;;0.70;0.45;;;17.50;1.00;;;;;;5048828;28;20157;-88
2023/07/24 06:17:28;;;;;;;1.00;0.70;;;17.60;99.90;;;;;;5047093;28;20053;-87
2023/07/24 06:19:55;;;;;;;0.85;0.40;;;17.80;99.90;;;;;;5045353;28;20238;-88
2023/07/24 06:22:22;;;;;;;0.98;0.50;;;17.90;34.30;;;;;;5063996;28;20059;-88
2023/07/24 06:24:49;;;;;;;1.17;0.93;;;18.00;90.40;;;;;;5033737;28;20078;-89
2023/07/24 06:27:16;;;;;;;0.60;0.50;;;18.00;99.90;;;;;;5030110;28;20053;-88
2023/07/24 06:29:43;;;;;;;0.70;0.60;;;18.10;1.00;;;;;;5031061;28;20076;-89
2023/07/24 06:32:09;;;;;;;0.95;0.50;;;18.20;99.90;;;;;;5047715;28;20056;-88
2023/07/24 06:34:36;;;;;;;0.90;0.55;;;18.20;99.90;;;;;;5063355;28;20044;-88
2023/07/24 06:37:03;;;;;;;2.53;0.82;;;18.20;99.90;;;;;;5046092;28;20076;-88
2023/07/24 06:39:47;;;;;;;1.35;0.70;;;18.10;99.90;;;;;;5032191;28;20404;-88
2023/07/24 06:42:14;;;;;;;0.75;0.55;;;18.00;99.90;;;;;;5045744;28;20083;-89
2023/07/24 06:44:41;;;;;;;1.48;0.70;;;17.90;99.90;;;;;;5050433;28;20060;-88
2023/07/24 06:47:07;;;;;;;1.70;0.82;;;17.80;99.90;;;;;;5038000;28;20083;-89
2023/07/24 06:49:34;;;;;;;0.80;0.75;;;17.80;99.90;;;;;;5062788;28;20065;-87
2023/07/24 06:52:01;;;;;;;0.85;0.80;;;17.70;99.90;;;;;;5072246;28;20057;-90
2023/07/24 06:54:28;;;;;;;0.90;0.70;;;17.70;99.90;;;;;;5033250;28;20496;-90
2023/07/24 06:56:55;;;;;;;1.60;0.70;;;17.70;99.90;;;;;;5033109;28;20088;-91
2023/07/24 06:59:23;;;;;;;0.57;0.50;;;17.70;99.90;;;;;;5059962;28;20044;-92
2023/07/24 07:01:49;;;;;;;1.02;0.60;;;17.80;99.90;;;;;;5053582;28;20059;-89
2023/07/24 07:04:16;;;;;;;1.13;0.70;;;17.80;11.80;;;;;;5040934;28;20083;-87
2023/07/24 07:06:43;;;;;;;0.50;0.47;;;17.70;31.60;;;;;;5045560;28;20052;-89
2023/07/24 07:09:11;;;;;;;0.75;0.55;;;17.70;99.90;;;;;;5049331;28;20070;-91
2023/07/24 07:11:39;;;;;;;0.70;0.43;;;17.70;22.90;;;;;;5043370;28;20053;-88
2023/07/24 07:14:08;;;;;;;0.65;0.50;;;17.80;21.10;;;;;;5039893;28;20088;-89
2023/07/24 07:16:35;;;;;;;0.77;0.65;;;17.70;1.00;;;;;;5035349;28;20045;-88
2023/07/24 07:19:02;;;;;;;0.77;0.50;;;17.70;16.20;;;;;;5055354;28;20329;-89
2023/07/24 07:21:29;;;;;;;0.50;0.50;;;17.70;59.70;;;;;;5051716;28;20413;-89
2023/07/24 07:23:56;;;;;;;0.75;0.57;;;17.80;1.00;;;;;;5061036;28;20065;-90
2023/07/24 07:26:22;;;;;;;0.90;0.70;;;17.70;1.00;;;;;;5056155;28;20036;-79
2023/07/24 07:28:50;;;;;;;0.88;0.70;;;17.80;1.00;;;;;;5045976;28;20055;-79
2023/07/24 07:31:17;;;;;;;0.98;0.70;;;17.80;1.00;;;;;;5045808;28;20037;-79
2023/07/24 07:33:44;;;;;;;0.50;0.40;;;17.80;99.90;;;;;;5061349;28;20049;-78
2023/07/24 07:36:11;;;;;;;1.25;0.80;;;17.80;1.00;;;;;;5064826;28;20549;-79
2023/07/24 07:38:39;;;;;;;0.57;0.50;;;17.80;1.00;;;;;;5063787;28;20048;-80
2023/07/24 07:41:06;;;;;;;0.75;0.63;;;17.80;1.00;;;;;;5042860;28;20464;-79
2023/07/24 07:43:34;;;;;;;1.05;0.70;;;17.70;1.00;;;;;;5035742;28;20201;-79
2023/07/24 07:46:02;;;;;;;1.40;0.68;;;17.80;1.00;;;;;;5021117;28;20400;-83
2023/07/24 07:48:28;;;;;;;0.85;0.60;;;17.90;1.00;;;;;;5048762;28;20067;-81
2023/07/24 07:50:55;;;;;;;1.15;0.75;;;18.00;99.90;;;;;;5028873;28;20559;-83
2023/07/24 07:53:22;;;;;;;0.60;0.50;;;18.30;99.90;;;;;;5028477;28;20135;-84
2023/07/24 07:55:57;;;;;;;1.00;0.70;;;18.60;1.00;;;;;;5035776;28;20480;-82
2023/07/24 07:58:24;;;;;;;0.43;0.43;;;18.70;99.90;;;;;;5015130;28;20122;-82
2023/07/24 08:00:51;;;;;;;0.60;0.57;;;18.90;99.90;;;;;;5050538;28;20041;-84
2023/07/24 08:03:18;;;;;;;2.47;0.95;;;19.00;99.90;;;;;;5028857;28;20059;-83
2023/07/24 08:05:45;;;;;;;1.10;0.75;;;19.10;99.90;;;;;;5044760;28;20048;-84
2023/07/24 08:08:11;;;;;;;0.90;0.70;;;19.30;4.80;;;;;;5064311;28;20080;-83
2023/07/24 08:10:39;;;;;;;1.35;0.80;;;19.40;99.90;;;;;;5032002;28;20139;-84
2023/07/24 08:13:07;;;;;;;0.73;0.73;;;19.50;99.90;;;;;;5044607;28;20057;-83
2023/07/24 08:15:35;;;;;;;0.68;0.60;;;19.50;99.90;;;;;;5028934;28;20108;-83
2023/07/24 08:18:04;;;;;;;2.00;0.80;;;19.70;99.90;;;;;;5028776;28;20136;-83
2023/07/24 08:20:32;;;;;;;0.70;0.70;;;19.70;99.90;;;;;;5028594;28;20545;-83
2023/07/24 08:22:59;;;;;;;0.60;0.60;;;19.70;99.90;;;;;;5032186;28;20049;-84
2023/07/24 08:25:25;;;;;;;1.00;0.90;;;19.70;98.50;;;;;;5048526;28;20049;-84
2023/07/24 08:27:52;;;;;;;1.02;0.70;;;19.50;99.90;;;;;;5066230;28;20048;-83
2023/07/24 08:30:31;;;;;;;1.98;0.80;;;19.50;99.90;;;;;;5035099;28;20156;-82
2023/07/24 08:32:59;;;;;;;1.05;0.95;;;19.50;99.90;;;;;;5047095;28;20060;-82
2023/07/24 08:35:26;;;;;;;0.80;0.73;;;19.50;99.90;;;;;;5027884;28;20049;-82
2023/07/24 08:37:53;;;;;;;0.77;0.60;;;19.70;99.90;;;;;;5041337;28;20095;-82
2023/07/24 08:40:20;;;;;;;0.68;0.68;;;19.70;99.90;;;;;;5024921;28;20045;-82
2023/07/24 08:42:48;;;;;;;1.30;0.88;;;19.80;99.90;;;;;;5011744;28;20567;-82
2023/07/24 08:45:15;;;;;;;0.73;0.65;;;19.70;99.90;;;;;;5050305;28;20373;-82
2023/07/24 08:47:45;;;;;;;1.08;0.90;;;19.70;95.90;;;;;;5052431;28;20044;-82
2023/07/24 08:50:14;;;;;;;1.00;0.70;;;19.70;98.30;;;;;;5048661;28;20522;-81
2023/07/24 08:52:42;;;;;;;0.80;0.73;;;19.70;99.90;;;;;;5048361;28;20048;-82
2023/07/24 08:55:10;;;;;;;1.25;0.88;;;19.80;90.10;;;;;;5047896;28;20578;-82
2023/07/24 08:57:37;;;;;;;1.58;1.23;;;19.80;94.30;;;;;;5050182;28;20056;-82
2023/07/24 09:00:05;;;;;;;1.02;0.88;;;20.00;92.30;;;;;;5036645;28;20102;-82
2023/07/24 09:02:33;;;;;;;1.20;0.95;;;20.10;81.40;;;;;;5025791;28;20048;-82
2023/07/24 09:05:00;;;;;;;1.17;0.95;;;20.10;65.00;;;;;;5025067;28;20186;-82
2023/07/24 09:07:27;;;;;;;1.10;0.98;;;20.20;57.90;;;;;;5029576;28;20044;-81
2023/07/24 09:09:54;;;;;;;1.75;1.30;;;20.20;54.70;;;;;;5024292;28;20152;-82
2023/07/24 09:12:22;;;;;;;1.17;0.90;;;20.00;51.00;;;;;;5033977;28;20059;-82
2023/07/24 09:14:48;;;;;;;1.13;1.00;;;19.90;69.20;;;;;;5041301;28;20087;-82
2023/07/24 09:17:15;;;;;;;2.22;1.17;;;19.40;99.90;;;;;;5043047;28;20061;-81
2023/07/24 09:19:43;;;;;;;1.20;0.82;;;18.70;99.90;;;;;;5030654;28;20057;-81
2023/07/24 09:22:14;;;;;;;1.65;0.85;;;18.40;99.90;;;;;;5020299;28;20086;-82
2023/07/24 09:24:51;;;;;;;1.33;0.60;;;18.10;99.90;;;;;;5042139;28;20057;-82
2023/07/24 09:27:19;;;;;;;0.55;0.55;;;17.90;1.00;;;;;;5037436;28;20121;-79
2023/07/24 09:29:46;;;;;;;1.67;0.60;;;17.70;99.90;;;;;;5025613;28;20056;-81
2023/07/24 09:32:23;;;;;;;0.70;0.47;;;17.60;1.00;;;;;;5023466;28;20159;-81
2023/07/24 09:34:56;;;;;;;0.98;0.57;;;17.60;99.90;;;;;;5034725;28;20516;-83
2023/07/24 09:37:27;;;;;;;1.35;0.57;;;17.50;1.00;;;;;;5043811;28;20156;-82
2023/07/24 09:39:54;;;;;;;0.95;0.70;;;17.40;99.90;;;;;;5035802;28;20132;-82
2023/07/24 09:42:34;;;;;;;0.68;0.47;;;17.40;99.90;;;;;;5038167;28;20053;-83
2023/07/24 09:45:02;;;;;;;0.47;0.30;;;17.40;99.90;;;;;;5032471;28;20388;-83
2023/07/24 09:47:29;;;;;;;1.20;0.80;;;17.40;1.00;;;;;;5047699;28;20588;-83
2023/07/24 09:50:16;;;;;;;0.98;0.70;;;17.40;99.90;;;;;;5035445;28;20123;-84
2023/07/24 09:52:43;;;;;;;1.38;0.80;;;17.30;1.00;;;;;;5044162;28;20128;-83
2023/07/24 09:55:21;;;;;;;1.02;0.70;;;17.30;1.00;;;;;;5018985;28;20773;-83
2023/07/24 09:57:48;;;;;;;1.08;0.82;;;17.30;1.00;;;;;;5027940;28;20491;-83
2023/07/24 10:00:15;;;;;;;0.88;0.60;;;17.30;99.90;;;;;;5030050;28;20703;-83
2023/07/24 10:02:42;;;;;;;0.88;0.63;;;17.30;1.00;;;;;;5022081;28;20454;-83
2023/07/24 10:05:09;;;;;;;0.50;0.50;;;17.30;99.90;;;;;;5067174;28;20056;-90
2023/07/24 10:07:36;;;;;;;1.00;0.60;;;17.20;99.90;;;;;;5027259;28;20040;-90
2023/07/24 10:10:03;;;;;;;0.52;0.40;;;17.10;99.90;;;;;;5042270;28;20507;-89
2023/07/24 10:12:32;;;;;;;0.63;0.57;;;17.10;99.90;;;;;;5029154;28;20051;-89
2023/07/24 10:14:59;;;;;;;0.85;0.50;;;17.00;99.90;;;;;;5035087;28;20132;-89
2023/07/24 10:17:38;;;;;;;0.45;0.25;;;17.10;99.90;;;;;;5030749;28;20057;-90
2023/07/24 10:20:08;;;;;;;0.40;0.40;;;17.20;99.90;;;;;;5041101;28;20048;-89
2023/07/24 10:22:37;;;;;;;0.20;0.20;;;17.20;99.90;;;;;;5049723;28;20052;-88
2023/07/24 10:25:05;;;;;;;0.60;0.60;;;17.40;99.90;;;;;;5065330;28;20066;-88
2023/07/24 10:27:36;;;;;;;0.47;0.47;;;17.60;99.90;;;;;;5065271;28;20041;-88
2023/07/24 10:30:04;;;;;;;0.45;0.40;;;17.70;1.00;;;;;;5037591;28;20431;-89
2023/07/24 10:32:51;;;;;;;0.40;0.40;;;17.70;1.00;;;;;;5051843;28;20052;-88
2023/07/24 10:35:22;;;;;;;0.52;0.40;;;17.60;99.90;;;;;;5043733;28;20143;-88
2023/07/24 10:37:59;;;;;;;0.50;0.40;;;17.50;1.00;;;;;;5043000;28;20041;-88
2023/07/24 10:40:28;;;;;;;0.52;0.30;;;17.40;58.50;;;;;;5049059;28;20080;-89
2023/07/24 10:43:03;;;;;;;0.32;0.30;;;17.20;1.00;;;;;;5032499;28;20048;-89
2023/07/24 10:45:40;;;;;;;0.52;0.40;;;17.20;22.40;;;;;;5049433;28;20052;-91
2023/07/24 10:48:11;;;;;;;1.08;0.30;;;17.00;1.00;;;;;;5043732;28;20088;-90
2023/07/24 10:50:42;;;;;;;0.20;0.20;;;17.00;1.80;;;;;;5065768;28;20060;-90
2023/07/24 10:53:10;;;;;;;0.32;0.30;;;17.00;1.00;;;;;;5025671;28;20106;-90
2023/07/24 10:55:37;;;;;;;0.80;0.30;;;17.10;1.00;;;;;;5053396;28;20045;-91
2023/07/24 10:58:03;;;;;;;0.17;0.17;;;17.10;99.90;;;;;;5067472;28;20105;-89
2023/07/24 11:00:30;;;;;;;0.43;0.30;;;17.20;99.90;;;;;;5052015;28;20045;-91
2023/07/24 11:02:57;;;;;;;0.28;0.22;;;17.40;99.90;;;;;;5049445;28;20120;-92
2023/07/24 11:05:24;;;;;;;0.45;0.30;;;17.70;99.90;;;;;;5045676;28;20060;-91
2023/07/24 11:07:51;;;;;;;0.20;0.20;;;17.60;1.00;;;;;;5019286;28;20099;-93
2023/07/24 11:10:19;;;;;;;0.55;0.30;;;17.70;99.90;;;;;;5035784;28;20136;-91
2023/07/24 11:12:47;;;;;;;0.20;0.20;;;17.80;99.90;;;;;;5018616;28;20134;-90
2023/07/24 11:15:14;;;;;;;0.25;0.20;;;18.20;99.90;;;;;;5029087;28;20456;-90
2023/07/24 11:17:41;;;;;;;1.45;0.13;;;18.50;1.00;;;;;;5038094;28;20495;-90
2023/07/24 11:20:10;;;;;;;0.15;0.10;;;18.90;99.90;;;;;;5052930;28;20040;-91
2023/07/24 11:22:42;;;;;;;0.20;0.20;;;19.20;99.90;;;;;;5025523;28;20248;-89
2023/07/24 11:25:10;;;;;;;0.50;0.20;;;19.00;99.90;;;;;;5025797;28;20407;-87
2023/07/24 11:27:42;;;;;;;0.38;0.28;;;18.40;99.90;;;;;;5025854;28;20049;-88
2023/07/24 11:30:11;;;;;;;1.17;0.20;;;18.20;99.90;;;;;;5046476;28;20041;-87
2023/07/24 11:32:42;;;;;;;0.52;0.30;;;18.00;1.00;;;;;;5047108;28;20254;-86
2023/07/24 11:35:10;;;;;;;0.20;0.17;;;18.10;53.40;;;;;;5052101;28;20056;-88
2023/07/24 11:37:37;;;;;;;0.70;0.40;;;18.20;99.90;;;;;;5021895;28;20446;-87
2023/07/24 11:40:09;;;;;;;0.28;0.20;;;18.00;1.00;;;;;;5023767;28;20417;-89
2023/07/24 11:42:39;;;;;;;0.20;0.20;;;18.20;1.00;;;;;;5033190;28;20055;-89
2023/07/24 11:45:07;;;;;;;0.35;0.20;;;18.20;1.00;;;;;;5062253;28;20428;-88
2023/07/24 11:47:47;;;;;;;0.35;0.35;;;18.20;51.90;;;;;;5028870;28;20057;-88
2023/07/24 11:50:15;;;;;;;0.63;0.30;;;18.20;99.90;;;;;;5044952;28;20080;-89
2023/07/24 11:52:44;;;;;;;0.15;0.15;;;18.30;99.90;;;;;;5031283;28;20099;-88
2023/07/24 11:55:29;;;;;;;0.30;0.20;;;18.50;99.90;;;;;;5043933;28;20048;-87
2023/07/24 11:58:00;;;;;;;0.20;0.20;;;18.40;1.00;;;;;;5014972;28;20582;-88
2023/07/24 12:00:28;;;;;;;0.40;0.35;;;18.40;1.00;;;;;;5049014;28;20182;-88
2023/07/24 12:03:04;;;;;;;0.50;0.30;;;18.50;99.90;;;;;;5040225;28;20076;-88
2023/07/24 12:05:42;;;;;;;0.43;0.30;;;18.50;99.90;;;;;;5031478;28;20087;-91
2023/07/24 12:08:09;;;;;;;1.00;0.20;;;18.50;99.90;;;;;;5031828;28;20045;-89
2023/07/24 12:10:37;;;;;;;0.40;0.20;;;18.40;99.90;;;;;;5035716;28;20148;-88
2023/07/24 12:13:06;;;;;;;0.20;0.20;;;18.30;99.90;;;;;;5065730;28;20435;-89
2023/07/24 12:15:35;;;;;;;0.10;0.10;;;18.30;99.90;;;;;;5047685;28;20639;-88
2023/07/24 12:18:02;;;;;;;0.63;0.40;;;18.20;99.90;;;;;;5041567;28;20182;-89
2023/07/24 12:20:31;;;;;;;0.30;0.30;;;18.20;99.90;;;;;;5038262;28;20639;-86
2023/07/24 12:22:58;;;;;;;0.32;0.20;;;18.00;99.90;;;;;;5068812;28;20071;-90
2023/07/24 12:25:25;;;;;;;0.40;0.30;;;17.90;99.90;;;;;;5031566;28;20582;-90
2023/07/24 12:27:52;;;;;;;0.40;0.30;;;17.80;99.90;;;;;;5015956;28;20085;-89
2023/07/24 12:30:19;;;;;;;0.63;0.30;;;17.70;35.70;;;;;;5018849;28;20044;-90
2023/07/24 12:32:46;;;;;;;0.70;0.40;;;17.70;99.90;;;;;;5040846;28;20041;-88
2023/07/24 12:35:13;;;;;;;0.32;0.30;;;17.60;99.90;;;;;;5065041;28;20070;-89
2023/07/24 12:37:43;;;;;;;0.50;0.40;;;17.60;99.90;;;;;;5072583;28;20112;-88
2023/07/24 12:40:10;;;;;;;0.15;0.15;;;17.80;99.90;;;;;;5066156;28;20412;-79
2023/07/24 12:42:37;;;;;;;0.60;0.30;;;18.00;99.90;;;;;;5027067;28;20052;-90
2023/07/24 12:45:04;;;;;;;0.28;0.20;;;18.20;99.90;;;;;;5037598;28;20048;-89
2023/07/24 12:47:31;;;;;;;0.90;0.30;;;18.20;99.90;;;;;;5021609;28;20056;-90
2023/07/24 12:49:59;;;;;;;0.30;0.30;;;18.20;1.00;;;;;;5046794;28;20076;-81
2023/07/24 12:52:26;;;;;;;0.22;0.20;;;18.20;99.90;;;;;;5042696;28;20122;-81
2023/07/24 12:54:53;;;;;;;0.47;0.32;;;18.20;99.90;;;;;;5017675;28;20819;-81
2023/07/24 12:57:28;;;;;;;0.30;0.30;;;18.00;99.90;;;;;;5014287;28;20052;-80